sensor_id;sensor_type;location;lat;lon;timestamp;pressure;altitude;pressure_sealevel;temperature;humidity
45864;BME280;31579;52.354;16.974;2023-05-03T00:00:32;312.3;;;-146.1;100.0
45864;BME280;31579;52.354;16.974;2023-05-03T00:01:36;347.9;;;-146.1;100.0
45864;BME280;31579;52.354;16.974;2023-05-03T00:02:40;344.7;;;-146.1;100.0
45864;BME280;31579;52.354;16.974;2023-05-03T00:03:44;271.7;;;-146.1;100.0
45864;BME280;31579;52.354;16.974;2023-05-03T00:04:50;200.4;;;-146.1;100.0
45864;BME280;31579;52.354;16.974;2023-05-03T00:05:52;166.0;;;-146.1;100.0
45864;BME280;31579;52.354;16.974;2023-05-03T00:06:56;165.0;;;-146.1;100.0
45864;BME280;31579;52.354;16.974;2023-05-03T00:08:00;147.8;;;-146.1;100.0
45864;BME280;31579;52.354;16.974;2023-05-03T00:09:04;142.1;;;-146.1;100.0
45864;BME280;31579;52.354;16.974;2023-05-03T00:10:08;152.7;;;-146.1;100.0
45864;BME280;31579;52.354;16.974;2023-05-03T00:11:13;180.0;;;-146.1;100.0
45864;BME280;31579;52.354;16.974;2023-05-03T00:12:17;177.2;;;-146.1;100.0
45864;BME280;31579;52.354;16.974;2023-05-03T00:13:21;181.9;;;-146.1;100.0
45864;BME280;31579;52.354;16.974;2023-05-03T00:14:25;137.6;;;-146.1;100.0
45864;BME280;31579;52.354;16.974;2023-05-03T00:15:29;138.8;;;-146.1;100.0
45864;BME280;31579;52.354;16.974;2023-05-03T00:16:33;161.3;;;-146.1;100.0
45864;BME280;31579;52.354;16.974;2023-05-03T00:17:37;145.0;;;-146.1;100.0
45864;BME280;31579;52.354;16.974;2023-05-03T00:18:41;160.4;;;-146.1;100.0
45864;BME280;31579;52.354;16.974;2023-05-03T00:19:45;185.3;;;-146.1;100.0
45864;BME280;31579;52.354;16.974;2023-05-03T00:20:49;190.3;;;-146.1;100.0
45864;BME280;31579;52.354;16.974;2023-05-03T00:21:53;158.2;;;-146.1;100.0
45864;BME280;31579;52.354;16.974;2023-05-03T00:22:57;133.3;;;-146.1;100.0
45864;BME280;31579;52.354;16.974;2023-05-03T00:24:01;110.2;;;-146.1;100.0
45864;BME280;31579;52.354;16.974;2023-05-03T00:25:07;93.0;;;-146.1;100.0
45864;BME280;31579;52.354;16.974;2023-05-03T00:26:16;80.2;;;-146.1;100.0
45864;BME280;31579;52.354;16.974;2023-05-03T00:27:20;64.9;;;-146.1;100.0
45864;BME280;31579;52.354;16.974;2023-05-03T00:28:24;39.2;;;-146.1;100.0
45864;BME280;31579;52.354;16.974;2023-05-03T00:29:28;30.5;;;-146.1;100.0
45864;BME280;31579;52.354;16.974;2023-05-03T00:30:32;26.1;;;-146.1;100.0
45864;BME280;31579;52.354;16.974;2023-05-03T00:31:36;35.6;;;-146.1;100.0
45864;BME280;31579;52.354;16.974;2023-05-03T00:32:40;37.3;;;-146.1;100.0
45864;BME280;31579;52.354;16.974;2023-05-03T00:33:44;33.2;;;-146.1;100.0
45864;BME280;31579;52.354;16.974;2023-05-03T00:35:52;32.8;;;-146.1;100.0
45864;BME280;31579;52.354;16.974;2023-05-03T00:36:56;36.8;;;-146.1;100.0
45864;BME280;31579;52.354;16.974;2023-05-03T00:38:01;36.0;;;-146.1;100.0
45864;BME280;31579;52.354;16.974;2023-05-03T00:39:06;35.0;;;-146.1;100.0
45864;BME280;31579;52.354;16.974;2023-05-03T00:40:10;36.8;;;-146.1;100.0
45864;BME280;31579;52.354;16.974;2023-05-03T00:41:13;21.0;;;-146.1;100.0
45864;BME280;31579;52.354;16.974;2023-05-03T00:42:17;62.0;;;-146.1;100.0
45864;BME280;31579;52.354;16.974;2023-05-03T00:43:21;77.0;;;-146.1;100.0
45864;BME280;31579;52.354;16.974;2023-05-03T00:44:25;84.2;;;-146.1;100.0
45864;BME280;31579;52.354;16.974;2023-05-03T00:45:29;86.7;;;-146.1;100.0
45864;BME280;31579;52.354;16.974;2023-05-03T00:46:33;80.8;;;-146.1;100.0
45864;BME280;31579;52.354;16.974;2023-05-03T00:47:37;64.7;;;-146.1;100.0
45864;BME280;31579;52.354;16.974;2023-05-03T00:48:41;58.9;;;-146.1;100.0
45864;BME280;31579;52.354;16.974;2023-05-03T00:49:45;52.5;;;-146.1;100.0
45864;BME280;31579;52.354;16.974;2023-05-03T00:50:49;42.1;;;-146.1;100.0
45864;BME280;31579;52.354;16.974;2023-05-03T00:51:54;39.1;;;-146.1;100.0
45864;BME280;31579;52.354;16.974;2023-05-03T00:52:58;43.0;;;-146.1;100.0
45864;BME280;31579;52.354;16.974;2023-05-03T00:54:02;35.5;;;-146.1;100.0
45864;BME280;31579;52.354;16.974;2023-05-03T00:55:06;34.2;;;-146.1;100.0
45864;BME280;31579;52.354;16.974;2023-05-03T00:56:10;35.6;;;-146.1;100.0
45864;BME280;31579;52.354;16.974;2023-05-03T00:56:25;37.2;;;-146.1;100.0
45864;BME280;31579;52.354;16.974;2023-05-03T00:57:29;32.3;;;-146.1;100.0
45864;BME280;31579;52.354;16.974;2023-05-03T00:58:33;15.8;;;-146.1;100.0
45864;BME280;31579;52.354;16.974;2023-05-03T00:59:37;37.3;;;-146.1;100.0
45864;BME280;31579;52.354;16.974;2023-05-03T01:00:41;42.5;;;-146.1;100.0
45864;BME280;31579;52.354;16.974;2023-05-03T01:02:49;28.1;;;-146.1;100.0
45864;BME280;31579;52.354;16.974;2023-05-03T01:03:53;13.3;;;-146.1;100.0
45864;BME280;31579;52.354;16.974;2023-05-03T01:04:57;-4.8;;;-146.1;100.0
45864;BME280;31579;52.354;16.974;2023-05-03T01:08:19;-48.5;;;-146.1;100.0
45864;BME280;31579;52.354;16.974;2023-05-03T01:09:22;-56.8;;;-146.1;100.0
45864;BME280;31579;52.354;16.974;2023-05-03T01:15:48;-79.3;;;-146.1;100.0
45864;BME280;31579;52.354;16.974;2023-05-03T01:16:48;-84.0;;;-146.1;100.0
45864;BME280;31579;52.354;16.974;2023-05-03T01:17:53;-87.4;;;-146.1;100.0
45864;BME280;31579;52.354;16.974;2023-05-03T01:18:55;-88.0;;;-146.1;100.0
45864;BME280;31579;52.354;16.974;2023-05-03T01:20:04;-84.1;;;-146.1;100.0
45864;BME280;31579;52.354;16.974;2023-05-03T01:21:04;-82.3;;;-146.1;100.0
45864;BME280;31579;52.354;16.974;2023-05-03T01:24:17;-77.1;;;-146.1;100.0
45864;BME280;31579;52.354;16.974;2023-05-03T01:25:20;-75.6;;;-146.1;100.0
45864;BME280;31579;52.354;16.974;2023-05-03T01:26:25;-74.8;;;-146.1;100.0
45864;BME280;31579;52.354;16.974;2023-05-03T01:27:28;-78.3;;;-146.1;100.0
45864;BME280;31579;52.354;16.974;2023-05-03T01:28:32;-83.1;;;-146.1;100.0
45864;BME280;31579;52.354;16.974;2023-05-03T01:29:36;-82.2;;;-146.1;100.0
45864;BME280;31579;52.354;16.974;2023-05-03T01:30:40;-84.9;;;-146.1;100.0
45864;BME280;31579;52.354;16.974;2023-05-03T01:31:48;-89.3;;;-146.1;100.0
45864;BME280;31579;52.354;16.974;2023-05-03T01:33:54;-90.1;;;-146.1;100.0
45864;BME280;31579;52.354;16.974;2023-05-03T01:36:03;-102.9;;;-146.1;100.0
45864;BME280;31579;52.354;16.974;2023-05-03T01:37:04;-105.9;;;-146.1;100.0
45864;BME280;31579;52.354;16.974;2023-05-03T01:38:08;-107.8;;;-146.1;100.0
45864;BME280;31579;52.354;16.974;2023-05-03T01:39:17;-109.6;;;-146.1;100.0
45864;BME280;31579;52.354;16.974;2023-05-03T01:40:15;-111.4;;;-146.1;100.0
45864;BME280;31579;52.354;16.974;2023-05-03T01:41:21;-113.3;;;-146.1;100.0
45864;BME280;31579;52.354;16.974;2023-05-03T01:42:25;-112.7;;;-146.1;100.0
45864;BME280;31579;52.354;16.974;2023-05-03T01:43:29;-112.5;;;-146.1;100.0
45864;BME280;31579;52.354;16.974;2023-05-03T01:44:33;-113.0;;;-146.1;100.0
45864;BME280;31579;52.354;16.974;2023-05-03T01:45:37;-113.5;;;-146.1;100.0
45864;BME280;31579;52.354;16.974;2023-05-03T01:46:41;-114.5;;;-146.1;100.0
45864;BME280;31579;52.354;16.974;2023-05-03T01:47:46;-117.7;;;-146.1;100.0
45864;BME280;31579;52.354;16.974;2023-05-03T01:48:50;-119.6;;;-146.1;100.0
45864;BME280;31579;52.354;16.974;2023-05-03T01:49:54;-122.1;;;-146.1;100.0
45864;BME280;31579;52.354;16.974;2023-05-03T01:50:58;-122.8;;;-146.1;100.0
45864;BME280;31579;52.354;16.974;2023-05-03T01:52:02;-124.4;;;-146.1;100.0
45864;BME280;31579;52.354;16.974;2023-05-03T01:53:06;-125.4;;;-146.1;100.0
45864;BME280;31579;52.354;16.974;2023-05-03T01:54:10;-126.9;;;-146.1;100.0
45864;BME280;31579;52.354;16.974;2023-05-03T01:55:14;-128.2;;;-146.1;100.0
45864;BME280;31579;52.354;16.974;2023-05-03T01:56:18;-128.5;;;-146.1;100.0
45864;BME280;31579;52.354;16.974;2023-05-03T01:57:22;-128.2;;;-146.1;100.0
45864;BME280;31579;52.354;16.974;2023-05-03T01:58:26;-127.7;;;-146.1;100.0
45864;BME280;31579;52.354;16.974;2023-05-03T01:59:29;-127.1;;;-146.1;100.0
45864;BME280;31579;52.354;16.974;2023-05-03T02:00:33;-127.6;;;-146.1;100.0
45864;BME280;31579;52.354;16.974;2023-05-03T02:01:38;-127.6;;;-146.1;100.0
45864;BME280;31579;52.354;16.974;2023-05-03T02:02:41;-128.1;;;-146.1;100.0
45864;BME280;31579;52.354;16.974;2023-05-03T02:03:45;-127.9;;;-146.1;100.0
45864;BME280;31579;52.354;16.974;2023-05-03T02:04:50;-130.6;;;-146.1;100.0
45864;BME280;31579;52.354;16.974;2023-05-03T02:05:54;-133.3;;;-146.1;100.0
45864;BME280;31579;52.354;16.974;2023-05-03T02:06:58;-135.0;;;-146.1;100.0
45864;BME280;31579;52.354;16.974;2023-05-03T02:08:02;-135.9;;;-146.1;100.0
45864;BME280;31579;52.354;16.974;2023-05-03T02:09:04;-137.0;;;-146.1;100.0
45864;BME280;31579;52.354;16.974;2023-05-03T02:10:07;-137.2;;;-146.1;100.0
45864;BME280;31579;52.354;16.974;2023-05-03T02:11:11;-137.4;;;-146.1;100.0
45864;BME280;31579;52.354;16.974;2023-05-03T02:12:27;-138.0;;;-146.1;100.0
45864;BME280;31579;52.354;16.974;2023-05-03T02:13:31;-138.8;;;-146.1;100.0
45864;BME280;31579;52.354;16.974;2023-05-03T02:14:35;-140.3;;;-146.1;100.0
45864;BME280;31579;52.354;16.974;2023-05-03T02:15:39;-141.2;;;-146.1;100.0
45864;BME280;31579;52.354;16.974;2023-05-03T02:16:43;-141.8;;;-146.1;100.0
45864;BME280;31579;52.354;16.974;2023-05-03T02:17:47;-142.2;;;-146.1;100.0
45864;BME280;31579;52.354;16.974;2023-05-03T02:18:51;-142.0;;;-146.1;100.0
45864;BME280;31579;52.354;16.974;2023-05-03T02:19:55;-142.0;;;-146.1;100.0
45864;BME280;31579;52.354;16.974;2023-05-03T02:20:59;-142.5;;;-146.1;100.0
45864;BME280;31579;52.354;16.974;2023-05-03T02:22:03;-143.6;;;-146.1;100.0
45864;BME280;31579;52.354;16.974;2023-05-03T02:23:07;-143.8;;;-146.1;100.0
45864;BME280;31579;52.354;16.974;2023-05-03T02:24:11;-143.2;;;-146.1;100.0
45864;BME280;31579;52.354;16.974;2023-05-03T02:25:15;-143.2;;;-146.1;100.0
45864;BME280;31579;52.354;16.974;2023-05-03T02:26:19;-144.5;;;-146.1;100.0
45864;BME280;31579;52.354;16.974;2023-05-03T02:27:26;-144.4;;;-146.1;100.0
45864;BME280;31579;52.354;16.974;2023-05-03T02:28:30;-145.1;;;-146.1;100.0
45864;BME280;31579;52.354;16.974;2023-05-03T02:29:34;-146.0;;;-146.1;100.0
45864;BME280;31579;52.354;16.974;2023-05-03T02:30:38;-146.6;;;-146.1;100.0
45864;BME280;31579;52.354;16.974;2023-05-03T02:31:43;-147.1;;;-146.1;100.0
45864;BME280;31579;52.354;16.974;2023-05-03T02:32:47;-146.9;;;-146.1;100.0
45864;BME280;31579;52.354;16.974;2023-05-03T02:33:51;-147.6;;;-146.1;100.0
45864;BME280;31579;52.354;16.974;2023-05-03T02:34:55;-148.3;;;-146.1;100.0
45864;BME280;31579;52.354;16.974;2023-05-03T02:35:59;-148.6;;;-146.1;100.0
45864;BME280;31579;52.354;16.974;2023-05-03T02:37:03;-148.8;;;-146.1;100.0
45864;BME280;31579;52.354;16.974;2023-05-03T02:38:07;-149.1;;;-146.1;100.0
45864;BME280;31579;52.354;16.974;2023-05-03T02:39:11;-149.2;;;-146.1;100.0
45864;BME280;31579;52.354;16.974;2023-05-03T02:40:15;-149.4;;;-146.1;100.0
45864;BME280;31579;52.354;16.974;2023-05-03T02:41:19;-149.5;;;-146.1;100.0
45864;BME280;31579;52.354;16.974;2023-05-03T02:42:24;-149.3;;;-146.1;100.0
45864;BME280;31579;52.354;16.974;2023-05-03T02:43:28;-149.2;;;-146.1;100.0
45864;BME280;31579;52.354;16.974;2023-05-03T02:44:45;-148.8;;;-146.1;100.0
45864;BME280;31579;52.354;16.974;2023-05-03T02:45:49;-148.9;;;-146.1;100.0
45864;BME280;31579;52.354;16.974;2023-05-03T02:46:53;-148.7;;;-146.1;100.0
45864;BME280;31579;52.354;16.974;2023-05-03T02:47:57;-148.4;;;-146.1;100.0
45864;BME280;31579;52.354;16.974;2023-05-03T02:49:01;-148.3;;;-146.1;100.0
45864;BME280;31579;52.354;16.974;2023-05-03T02:50:05;-147.9;;;-146.1;100.0
45864;BME280;31579;52.354;16.974;2023-05-03T02:51:09;-148.0;;;-146.1;100.0
45864;BME280;31579;52.354;16.974;2023-05-03T02:52:13;-147.6;;;-146.1;100.0
45864;BME280;31579;52.354;16.974;2023-05-03T02:53:17;-147.7;;;-146.1;100.0
45864;BME280;31579;52.354;16.974;2023-05-03T02:54:21;-147.7;;;-146.1;100.0
45864;BME280;31579;52.354;16.974;2023-05-03T02:55:25;-147.5;;;-146.1;100.0
45864;BME280;31579;52.354;16.974;2023-05-03T02:56:29;-147.2;;;-146.1;100.0
45864;BME280;31579;52.354;16.974;2023-05-03T02:57:33;-146.9;;;-146.1;100.0
45864;BME280;31579;52.354;16.974;2023-05-03T02:58:37;-146.4;;;-146.1;100.0
45864;BME280;31579;52.354;16.974;2023-05-03T02:59:42;-146.5;;;-146.1;100.0
45864;BME280;31579;52.354;16.974;2023-05-03T03:00:46;-145.1;;;-146.1;100.0
45864;BME280;31579;52.354;16.974;2023-05-03T03:01:50;-144.4;;;-146.1;100.0
45864;BME280;31579;52.354;16.974;2023-05-03T03:02:54;-143.8;;;-146.1;100.0
45864;BME280;31579;52.354;16.974;2023-05-03T03:03:58;-143.1;;;-146.1;100.0
45864;BME280;31579;52.354;16.974;2023-05-03T03:05:00;-93.9;;;-146.1;100.0
45864;BME280;31579;52.354;16.974;2023-05-03T03:06:03;-104.1;;;-146.1;100.0
45864;BME280;31579;52.354;16.974;2023-05-03T03:07:07;-127.1;;;-146.1;100.0
45864;BME280;31579;52.354;16.974;2023-05-03T03:08:11;-130.5;;;-146.1;100.0
45864;BME280;31579;52.354;16.974;2023-05-03T03:09:15;-130.9;;;-146.1;100.0
45864;BME280;31579;52.354;16.974;2023-05-03T03:10:19;-130.3;;;-146.1;100.0
45864;BME280;31579;52.354;16.974;2023-05-03T03:11:23;-130.0;;;-146.1;100.0
45864;BME280;31579;52.354;16.974;2023-05-03T03:12:28;-130.2;;;-146.1;100.0
45864;BME280;31579;52.354;16.974;2023-05-03T03:13:31;-129.3;;;-146.1;100.0
45864;BME280;31579;52.354;16.974;2023-05-03T03:14:35;-128.7;;;-146.1;100.0
45864;BME280;31579;52.354;16.974;2023-05-03T03:15:39;-127.6;;;-146.1;100.0
45864;BME280;31579;52.354;16.974;2023-05-03T03:16:41;-68.7;;;-146.1;100.0
45864;BME280;31579;52.354;16.974;2023-05-03T03:17:44;-79.4;;;-146.1;100.0
45864;BME280;31579;52.354;16.974;2023-05-03T03:18:48;-106.0;;;-146.1;100.0
45864;BME280;31579;52.354;16.974;2023-05-03T03:19:52;-109.6;;;-146.1;100.0
45864;BME280;31579;52.354;16.974;2023-05-03T03:20:56;-110.3;;;-146.1;100.0
45864;BME280;31579;52.354;16.974;2023-05-03T03:22:00;-110.3;;;-146.1;100.0
45864;BME280;31579;52.354;16.974;2023-05-03T03:23:05;-109.5;;;-146.1;100.0
45864;BME280;31579;52.354;16.974;2023-05-03T03:24:09;-109.1;;;-146.1;100.0
45864;BME280;31579;52.354;16.974;2023-05-03T03:24:55;-99.0;;;-146.1;100.0
45864;BME280;31579;52.354;16.974;2023-05-03T03:25:59;-108.8;;;-146.1;100.0
45864;BME280;31579;52.354;16.974;2023-05-03T03:27:01;-40.7;;;-146.1;100.0
45864;BME280;31579;52.354;16.974;2023-05-03T03:28:06;-87.7;;;-146.1;100.0
45864;BME280;31579;52.354;16.974;2023-05-03T03:29:10;-92.5;;;-146.1;100.0
45864;BME280;31579;52.354;16.974;2023-05-03T03:30:14;-94.5;;;-146.1;100.0
45864;BME280;31579;52.354;16.974;2023-05-03T03:31:18;-97.2;;;-146.1;100.0
45864;BME280;31579;52.354;16.974;2023-05-03T03:32:22;-98.4;;;-146.1;100.0
45864;BME280;31579;52.354;16.974;2023-05-03T03:33:26;-99.2;;;-146.1;100.0
45864;BME280;31579;52.354;16.974;2023-05-03T03:34:30;-100.6;;;-146.1;100.0
45864;BME280;31579;52.354;16.974;2023-05-03T03:35:34;-101.7;;;-146.1;100.0
45864;BME280;31579;52.354;16.974;2023-05-03T03:36:39;-100.9;;;-146.1;100.0
45864;BME280;31579;52.354;16.974;2023-05-03T03:37:43;-100.3;;;-146.1;100.0
45864;BME280;31579;52.354;16.974;2023-05-03T03:38:47;-99.9;;;-146.1;100.0
45864;BME280;31579;52.354;16.974;2023-05-03T03:39:51;-99.7;;;-146.1;100.0
45864;BME280;31579;52.354;16.974;2023-05-03T03:40:55;-97.9;;;-146.1;100.0
45864;BME280;31579;52.354;16.974;2023-05-03T03:41:59;-95.8;;;-146.1;100.0
45864;BME280;31579;52.354;16.974;2023-05-03T03:43:01;-25.6;;;-146.1;100.0
45864;BME280;31579;52.354;16.974;2023-05-03T03:44:04;-39.2;;;-146.1;100.0
45864;BME280;31579;52.354;16.974;2023-05-03T03:45:08;-71.0;;;-146.1;100.0
45864;BME280;31579;52.354;16.974;2023-05-03T03:46:12;-75.3;;;-146.1;100.0
45864;BME280;31579;52.354;16.974;2023-05-03T03:47:16;-76.1;;;-146.1;100.0
45864;BME280;31579;52.354;16.974;2023-05-03T03:48:20;-77.5;;;-146.1;100.0
45864;BME280;31579;52.354;16.974;2023-05-03T03:49:24;-78.6;;;-146.1;100.0
45864;BME280;31579;52.354;16.974;2023-05-03T03:50:28;-81.2;;;-146.1;100.0
45864;BME280;31579;52.354;16.974;2023-05-03T03:51:32;-82.3;;;-146.1;100.0
45864;BME280;31579;52.354;16.974;2023-05-03T03:52:36;-82.8;;;-146.1;100.0
45864;BME280;31579;52.354;16.974;2023-05-03T03:53:40;-82.4;;;-146.1;100.0
45864;BME280;31579;52.354;16.974;2023-05-03T03:54:44;-81.5;;;-146.1;100.0
45864;BME280;31579;52.354;16.974;2023-05-03T03:55:48;-80.2;;;-146.1;100.0
45864;BME280;31579;52.354;16.974;2023-05-03T03:56:50;-9.0;;;-146.1;100.0
45864;BME280;31579;52.354;16.974;2023-05-03T03:57:52;21.7;;;-146.1;100.0
45864;BME280;31579;52.354;16.974;2023-05-03T03:58:56;-50.0;;;-146.1;100.0
45864;BME280;31579;52.354;16.974;2023-05-03T04:00:01;-58.3;;;-146.1;100.0
45864;BME280;31579;52.354;16.974;2023-05-03T04:01:04;-28.4;;;-146.1;100.0
45864;BME280;31579;52.354;16.974;2023-05-03T04:02:08;-59.8;;;-146.1;100.0
45864;BME280;31579;52.354;16.974;2023-05-03T04:03:12;-66.2;;;-146.1;100.0
45864;BME280;31579;52.354;16.974;2023-05-03T04:04:16;-66.8;;;-146.1;100.0
45864;BME280;31579;52.354;16.974;2023-05-03T04:05:20;-68.8;;;-146.1;100.0
45864;BME280;31579;52.354;16.974;2023-05-03T04:06:25;-69.6;;;-146.1;100.0
45864;BME280;31579;52.354;16.974;2023-05-03T04:07:29;-70.0;;;-146.1;100.0
45864;BME280;31579;52.354;16.974;2023-05-03T04:08:33;-70.2;;;-146.1;100.0
45864;BME280;31579;52.354;16.974;2023-05-03T04:09:37;-68.6;;;-146.1;100.0
45864;BME280;31579;52.354;16.974;2023-05-03T04:10:41;-67.2;;;-146.1;100.0
45864;BME280;31579;52.354;16.974;2023-05-03T04:11:45;-65.4;;;-146.1;100.0
45864;BME280;31579;52.354;16.974;2023-05-03T04:12:49;-63.0;;;-146.1;100.0
45864;BME280;31579;52.354;16.974;2023-05-03T04:13:53;-60.8;;;-146.1;100.0
45864;BME280;31579;52.354;16.974;2023-05-03T04:14:57;-58.3;;;-146.1;100.0
45864;BME280;31579;52.354;16.974;2023-05-03T04:16:01;-54.9;;;-146.1;100.0
45864;BME280;31579;52.354;16.974;2023-05-03T04:17:04;-8.8;;;-146.1;100.0
45864;BME280;31579;52.354;16.974;2023-05-03T04:18:08;-32.4;;;-146.1;100.0
45864;BME280;31579;52.354;16.974;2023-05-03T04:19:12;-31.2;;;-146.1;100.0
45864;BME280;31579;52.354;16.974;2023-05-03T04:20:16;-24.9;;;-146.1;100.0
45864;BME280;31579;52.354;16.974;2023-05-03T04:21:20;-16.7;;;-146.1;100.0
45864;BME280;31579;52.354;16.974;2023-05-03T04:22:24;-10.3;;;-146.1;100.0
45864;BME280;31579;52.354;16.974;2023-05-03T04:23:28;-6.0;;;-146.1;100.0
45864;BME280;31579;52.354;16.974;2023-05-03T04:24:32;-2.7;;;-146.1;100.0
45864;BME280;31579;52.354;16.974;2023-05-03T04:25:36;1.8;;;-146.1;100.0
45864;BME280;31579;52.354;16.974;2023-05-03T04:26:40;6.3;;;-146.1;100.0
45864;BME280;31579;52.354;16.974;2023-05-03T04:27:44;11.6;;;-146.1;100.0
45864;BME280;31579;52.354;16.974;2023-05-03T04:28:48;17.2;;;-146.1;100.0
45864;BME280;31579;52.354;16.974;2023-05-03T04:29:51;135.4;;;-146.1;100.0
45864;BME280;31579;52.354;16.974;2023-05-03T04:30:55;58.6;;;-146.1;100.0
45864;BME280;31579;52.354;16.974;2023-05-03T04:31:59;55.3;;;-146.1;100.0
45864;BME280;31579;52.354;16.974;2023-05-03T04:33:01;191.9;;;-146.1;100.0
45864;BME280;31579;52.354;16.974;2023-05-03T04:34:06;92.0;;;-146.1;100.0
45864;BME280;31579;52.354;16.974;2023-05-03T04:35:10;83.7;;;-146.1;100.0
45864;BME280;31579;52.354;16.974;2023-05-03T04:36:14;81.8;;;-146.1;100.0
45864;BME280;31579;52.354;16.974;2023-05-03T04:37:18;82.9;;;-146.1;100.0
45864;BME280;31579;52.354;16.974;2023-05-03T04:38:22;83.9;;;-146.1;100.0
45864;BME280;31579;52.354;16.974;2023-05-03T04:39:26;85.4;;;-146.1;100.0
45864;BME280;31579;52.354;16.974;2023-05-03T04:40:30;84.9;;;-146.1;100.0
45864;BME280;31579;52.354;16.974;2023-05-03T04:41:35;86.0;;;-146.1;100.0
45864;BME280;31579;52.354;16.974;2023-05-03T04:42:39;87.1;;;-146.1;100.0
45864;BME280;31579;52.354;16.974;2023-05-03T04:43:43;89.5;;;-146.1;100.0
45864;BME280;31579;52.354;16.974;2023-05-03T04:44:47;92.6;;;-146.1;100.0
45864;BME280;31579;52.354;16.974;2023-05-03T04:45:51;97.1;;;-146.1;100.0
45864;BME280;31579;52.354;16.974;2023-05-03T04:46:55;99.8;;;-146.1;100.0
45864;BME280;31579;52.354;16.974;2023-05-03T04:47:59;102.4;;;-146.1;100.0
45864;BME280;31579;52.354;16.974;2023-05-03T04:49:01;241.9;;;-146.1;100.0
45864;BME280;31579;52.354;16.974;2023-05-03T04:50:04;229.0;;;-146.1;100.0
45864;BME280;31579;52.354;16.974;2023-05-03T04:51:08;161.0;;;-146.1;100.0
45864;BME280;31579;52.354;16.974;2023-05-03T04:52:12;154.7;;;-146.1;100.0
45864;BME280;31579;52.354;16.974;2023-05-03T04:53:16;154.0;;;-146.1;100.0
45864;BME280;31579;52.354;16.974;2023-05-03T04:54:20;154.6;;;-146.1;100.0
45864;BME280;31579;52.354;16.974;2023-05-03T04:55:24;155.7;;;-146.1;100.0
45864;BME280;31579;52.354;16.974;2023-05-03T04:56:28;159.2;;;-146.1;100.0
45864;BME280;31579;52.354;16.974;2023-05-03T04:57:32;155.1;;;-146.1;100.0
45864;BME280;31579;52.354;16.974;2023-05-03T04:58:36;159.1;;;-146.1;100.0
45864;BME280;31579;52.354;16.974;2023-05-03T04:59:40;164.9;;;-146.1;100.0
45864;BME280;31579;52.354;16.974;2023-05-03T05:00:44;170.6;;;-146.1;100.0
45864;BME280;31579;52.354;16.974;2023-05-03T05:01:48;174.1;;;-146.1;100.0
45864;BME280;31579;52.354;16.974;2023-05-03T05:03:04;155.6;;;-146.1;100.0
45864;BME280;31579;52.354;16.974;2023-05-03T05:04:08;169.0;;;-146.1;100.0
45864;BME280;31579;52.354;16.974;2023-05-03T05:05:12;180.0;;;-146.1;100.0
45864;BME280;31579;52.354;16.974;2023-05-03T05:06:16;188.9;;;-146.1;100.0
45864;BME280;31579;52.354;16.974;2023-05-03T05:07:20;199.1;;;-146.1;100.0
45864;BME280;31579;52.354;16.974;2023-05-03T05:08:24;203.8;;;-146.1;100.0
45864;BME280;31579;52.354;16.974;2023-05-03T05:09:28;210.3;;;-146.1;100.0
45864;BME280;31579;52.354;16.974;2023-05-03T05:10:35;210.6;;;-146.1;100.0
45864;BME280;31579;52.354;16.974;2023-05-03T05:11:36;214.5;;;-146.1;100.0
45864;BME280;31579;52.354;16.974;2023-05-03T05:12:40;217.0;;;-146.1;100.0
45864;BME280;31579;52.354;16.974;2023-05-03T05:13:44;217.4;;;-146.1;100.0
45864;BME280;31579;52.354;16.974;2023-05-03T05:14:48;218.4;;;-146.1;100.0
45864;BME280;31579;52.354;16.974;2023-05-03T05:15:52;216.7;;;-146.1;100.0
45864;BME280;31579;52.354;16.974;2023-05-03T05:16:56;218.5;;;-146.1;100.0
45864;BME280;31579;52.354;16.974;2023-05-03T05:17:59;317.0;;;-146.1;100.0
45864;BME280;31579;52.354;16.974;2023-05-03T05:19:11;94.0;;;-146.1;100.0
45864;BME280;31579;52.354;16.974;2023-05-03T05:20:14;174.2;;;-146.1;100.0
45864;BME280;31579;52.354;16.974;2023-05-03T05:21:18;192.1;;;-146.1;100.0
45864;BME280;31579;52.354;16.974;2023-05-03T05:22:22;198.6;;;-146.1;100.0
45864;BME280;31579;52.354;16.974;2023-05-03T05:23:26;204.7;;;-146.1;100.0
45864;BME280;31579;52.354;16.974;2023-05-03T05:24:30;207.6;;;-146.1;100.0
45864;BME280;31579;52.354;16.974;2023-05-03T05:25:34;207.9;;;-146.1;100.0
45864;BME280;31579;52.354;16.974;2023-05-03T05:26:38;208.9;;;-146.1;100.0
45864;BME280;31579;52.354;16.974;2023-05-03T05:27:42;211.5;;;-146.1;100.0
45864;BME280;31579;52.354;16.974;2023-05-03T05:28:46;210.0;;;-146.1;100.0
45864;BME280;31579;52.354;16.974;2023-05-03T05:29:50;212.7;;;-146.1;100.0
45864;BME280;31579;52.354;16.974;2023-05-03T05:30:54;205.5;;;-146.1;100.0
45864;BME280;31579;52.354;16.974;2023-05-03T05:31:58;199.5;;;-146.1;100.0
45864;BME280;31579;52.354;16.974;2023-05-03T05:33:08;141.6;;;-146.1;100.0
45864;BME280;31579;52.354;16.974;2023-05-03T05:34:12;172.1;;;-146.1;100.0
45864;BME280;31579;52.354;16.974;2023-05-03T05:35:16;174.3;;;-146.1;100.0
45864;BME280;31579;52.354;16.974;2023-05-03T05:36:20;175.7;;;-146.1;100.0
45864;BME280;31579;52.354;16.974;2023-05-03T05:37:24;174.6;;;-146.1;100.0
45864;BME280;31579;52.354;16.974;2023-05-03T05:38:28;175.8;;;-146.1;100.0
45864;BME280;31579;52.354;16.974;2023-05-03T05:39:32;177.7;;;-146.1;100.0
45864;BME280;31579;52.354;16.974;2023-05-03T05:40:51;83.7;;;-146.1;100.0
45864;BME280;31579;52.354;16.974;2023-05-03T05:41:55;144.2;;;-146.1;100.0
45864;BME280;31579;52.354;16.974;2023-05-03T05:42:59;164.5;;;-146.1;100.0
45864;BME280;31579;52.354;16.974;2023-05-03T05:44:03;169.0;;;-146.1;100.0
45864;BME280;31579;52.354;16.974;2023-05-03T05:45:07;166.0;;;-146.1;100.0
45864;BME280;31579;52.354;16.974;2023-05-03T05:46:11;156.3;;;-146.1;100.0
45864;BME280;31579;52.354;16.974;2023-05-03T05:47:15;149.3;;;-146.1;100.0
45864;BME280;31579;52.354;16.974;2023-05-03T05:48:19;144.1;;;-146.1;100.0
45864;BME280;31579;52.354;16.974;2023-05-03T05:49:23;147.6;;;-146.1;100.0
45864;BME280;31579;52.354;16.974;2023-05-03T05:50:27;146.9;;;-146.1;100.0
45864;BME280;31579;52.354;16.974;2023-05-03T05:51:31;143.8;;;-146.1;100.0
45864;BME280;31579;52.354;16.974;2023-05-03T05:52:35;143.3;;;-146.1;100.0
45864;BME280;31579;52.354;16.974;2023-05-03T05:53:39;135.6;;;-146.1;100.0
45864;BME280;31579;52.354;16.974;2023-05-03T05:54:43;128.7;;;-146.1;100.0
45864;BME280;31579;52.354;16.974;2023-05-03T05:55:47;121.9;;;-146.1;100.0
45864;BME280;31579;52.354;16.974;2023-05-03T05:56:51;120.4;;;-146.1;100.0